Time;durP1;ratioP1;P1;durP2;ratioP2;P2;SDS_P1;SDS_P2;PMS_P1;PMS_P2;Temp;Humidity;BMP_temperature;BMP_pressure;BME280_temperature;BME280_humidity;BME280_pressure;Samples;Min_cycle;Max_cycle;Signal;HPM_P1;HPM_P2
2022/04/24 00:00:30;;;;;;;4.20;3.20;;;;;;;14.83;51.42;100651.69;5087363;28;20442;-62
2022/04/24 00:02:57;;;;;;;3.38;3.05;;;;;;;14.81;51.22;100641.19;5087228;28;20417;-62
2022/04/24 00:05:24;;;;;;;3.78;3.00;;;;;;;14.81;51.43;100645.72;5086868;28;20503;-61
2022/04/24 00:07:51;;;;;;;4.35;3.03;;;;;;;14.74;51.52;100631.53;5087144;28;20541;-60
2022/04/24 00:10:18;;;;;;;6.03;2.78;;;;;;;14.78;51.50;100654.94;5087215;28;20406;-60
2022/04/24 00:12:45;;;;;;;3.83;3.10;;;;;;;14.61;52.03;100646.44;5087067;28;20406;-60
2022/04/24 00:17:27;;;;;;;4.75;2.80;;;;;;;14.61;51.70;100651.78;5118400;27;20413;-62
2022/04/24 00:21:03;;;;;;;4.03;2.83;;;;;;;14.59;52.25;100650.34;5121782;27;20893;-61
2022/04/24 00:23:30;;;;;;;5.28;2.90;;;;;;;14.52;51.97;100647.59;5107201;28;20423;-62
2022/04/24 00:27:38;;;;;;;3.80;2.92;;;;;;;14.47;52.49;100650.84;5118291;27;20413;-61
2022/04/24 00:30:06;;;;;;;5.23;3.00;;;;;;;14.37;52.46;100645.06;5086921;28;20796;-61
2022/04/24 00:32:33;;;;;;;4.50;3.17;;;;;;;14.36;52.60;100647.94;5086897;28;20413;-61
2022/04/24 00:36:19;;;;;;;4.82;3.30;;;;;;;14.31;52.35;100652.03;5118231;27;20780;-62
2022/04/24 00:38:46;;;;;;;5.60;3.47;;;;;;;14.29;52.52;100653.22;5086995;28;20442;-61
2022/04/24 00:41:13;;;;;;;4.30;3.33;;;;;;;14.22;52.64;100650.50;5087258;28;20468;-61
2022/04/24 00:43:40;;;;;;;5.05;3.40;;;;;;;14.17;52.67;100650.28;5086838;28;20415;-61
2022/04/24 00:46:14;;;;;;;4.22;3.33;;;;;;;14.06;52.92;100657.00;5086760;28;20426;-61
2022/04/24 00:50:38;;;;;;;4.95;3.50;;;;;;;14.05;52.82;100649.19;5118328;27;20402;-60
2022/04/24 00:53:07;;;;;;;4.20;3.20;;;;;;;14.05;52.86;100649.19;5087221;28;20894;-61
2022/04/24 00:55:34;;;;;;;5.25;3.10;;;;;;;14.03;53.09;100638.72;5086866;28;20421;-61
2022/04/24 00:59:00;;;;;;;8.77;3.63;;;;;;;13.99;52.84;100640.13;5118384;27;20394;-61
2022/04/24 01:01:27;;;;;;;4.28;3.15;;;;;;;13.95;52.98;100644.16;5087304;28;20414;-60
2022/04/24 01:03:59;;;;;;;3.95;2.90;;;;;;;13.95;53.06;100646.84;5086944;28;20838;-61
2022/04/24 01:06:27;;;;;;;3.10;2.80;;;;;;;13.93;53.11;100641.69;5086835;28;20903;-61
2022/04/24 01:08:54;;;;;;;4.10;3.20;;;;;;;13.88;52.82;100646.81;5087132;28;20500;-61
2022/04/24 01:11:21;;;;;;;9.32;6.38;;;;;;;13.83;53.10;100643.03;5087095;28;20519;-61
2022/04/24 01:17:47;;;;;;;8.40;5.00;;;;;;;13.81;53.16;100647.75;5159460;27;867687;-61
2022/04/24 01:20:20;;;;;;;6.03;4.40;;;;;;;13.82;53.36;100650.22;5190549;27;20413;-61
2022/04/24 01:22:47;;;;;;;5.93;4.00;;;;;;;13.81;53.16;100650.41;5190476;27;20433;-61
2022/04/24 01:25:15;;;;;;;6.95;3.95;;;;;;;13.72;53.59;100642.56;5190183;27;20465;-61
2022/04/24 01:28:48;;;;;;;4.28;3.40;;;;;;;13.70;53.53;100644.63;5118035;27;20405;-62
2022/04/24 01:31:15;;;;;;;5.72;3.25;;;;;;;13.70;53.03;100644.63;5087296;28;20418;-61
2022/04/24 01:33:42;;;;;;;4.85;3.38;;;;;;;13.66;53.26;100647.84;5086908;28;20464;-62
2022/04/24 01:36:10;;;;;;;3.60;2.97;;;;;;;13.56;53.48;100643.66;5086888;28;20450;-61
2022/04/24 01:38:37;;;;;;;5.30;2.80;;;;;;;13.57;53.52;100642.63;5087086;28;20452;-61
2022/04/24 01:41:04;;;;;;;4.30;3.08;;;;;;;13.53;53.58;100644.03;5087146;28;20449;-61
2022/04/24 01:45:42;;;;;;;4.32;2.85;;;;;;;13.48;53.62;100643.78;5118194;27;20780;-61
2022/04/24 01:48:09;;;;;;;4.95;2.97;;;;;;;13.44;53.59;100634.53;5086896;28;20407;-63
2022/04/24 01:50:37;;;;;;;4.10;2.70;;;;;;;13.46;53.48;100631.69;5086942;28;20916;-61
2022/04/24 01:55:28;;;;;;;3.97;2.80;;;;;;;13.42;53.66;100633.09;5118305;27;20401;-61
2022/04/24 01:57:55;;;;;;;4.88;2.90;;;;;;;13.41;54.04;100634.09;5086957;28;20936;-62
2022/04/24 02:00:22;;;;;;;4.07;2.70;;;;;;;13.36;53.78;100642.63;5087214;28;20410;-62
2022/04/24 02:03:36;;;;;;;4.40;3.20;;;;;;;13.33;54.08;100630.53;5118272;27;20413;-61
2022/04/24 02:07:51;;;;;;;4.18;3.10;;;;;;;13.38;53.85;100641.44;5118327;27;20413;-62
2022/04/24 02:10:18;;;;;;;4.82;3.20;;;;;;;13.37;53.91;100634.47;5086939;28;20477;-61
2022/04/24 02:12:46;;;;;;;4.03;3.20;;;;;;;13.33;54.09;100632.38;5087149;28;20406;-61
2022/04/24 02:15:13;;;;;;;4.40;2.80;;;;;;;13.38;54.18;100628.13;5087241;28;20769;-61
2022/04/24 02:17:40;;;;;;;4.15;3.20;;;;;;;13.35;54.21;100638.34;5086785;28;20422;-61
2022/04/24 02:20:09;;;;;;;5.47;3.17;;;;;;;13.38;53.97;100638.78;5087004;28;20420;-61
2022/04/24 02:22:36;;;;;;;3.75;3.03;;;;;;;13.37;54.21;100628.31;5086792;28;20421;-61
2022/04/24 02:25:06;;;;;;;4.30;3.25;;;;;;;13.29;54.56;100629.25;5086950;28;20410;-61
2022/04/24 02:27:34;;;;;;;3.90;3.03;;;;;;;13.27;54.53;100630.44;5086831;28;20803;-60
2022/04/24 02:30:01;;;;;;;4.15;3.17;;;;;;;13.23;54.52;100634.50;5086892;28;20487;-61
2022/04/24 02:32:28;;;;;;;6.32;3.33;;;;;;;13.25;54.62;100627.16;5086560;28;20410;-61
2022/04/24 02:34:55;;;;;;;4.07;3.28;;;;;;;13.25;54.47;100630.63;5086793;28;20438;-61
2022/04/24 02:37:23;;;;;;;418.65;276.02;;;;;;;13.28;54.50;100632.09;5086425;28;20414;-61
2022/04/24 02:39:50;;;;;;;67.93;49.60;;;;;;;13.22;54.73;100631.03;5086287;28;20850;-62
2022/04/24 02:42:19;;;;;;;20.77;18.48;;;;;;;13.22;54.81;100639.00;5086254;28;20907;-61
2022/04/24 02:44:46;;;;;;;13.85;11.45;;;;;;;13.20;55.08;100631.22;5086615;28;20414;-61
2022/04/24 02:47:13;;;;;;;20.83;14.57;;;;;;;13.20;55.00;100641.84;5086502;28;20426;-61
2022/04/24 02:49:40;;;;;;;14.73;10.10;;;;;;;13.18;54.83;100637.72;5086196;28;20765;-62
2022/04/24 02:52:08;;;;;;;14.93;9.95;;;;;;;13.16;54.85;100645.91;5086378;28;20414;-61
2022/04/24 02:54:35;;;;;;;8.10;6.10;;;;;;;13.08;55.11;100642.53;5086038;28;20480;-61
2022/04/24 02:57:02;;;;;;;6.82;4.50;;;;;;;13.10;55.05;100644.00;5086015;28;20411;-61
2022/04/24 02:59:32;;;;;;;5.78;4.32;;;;;;;13.04;54.88;100638.63;5086114;28;20409;-61
2022/04/24 03:01:59;;;;;;;4.82;3.60;;;;;;;12.96;55.04;100640.38;5086170;28;20481;-61
2022/04/24 03:04:26;;;;;;;5.18;4.30;;;;;;;12.95;54.98;100643.22;5086180;28;20410;-61
2022/04/24 03:06:53;;;;;;;4.65;3.95;;;;;;;12.88;54.84;100644.97;5086112;28;20452;-61
2022/04/24 03:09:20;;;;;;;7.25;6.55;;;;;;;12.81;55.09;100651.03;5085834;28;20468;-61
2022/04/24 03:11:47;;;;;;;8.25;5.93;;;;;;;12.73;55.02;100647.66;5085777;28;20446;-62
2022/04/24 03:14:14;;;;;;;5.82;5.00;;;;;;;12.70;55.15;100650.69;5086024;28;20420;-61
2022/04/24 03:16:42;;;;;;;7.30;5.38;;;;;;;12.64;55.48;100636.31;5085994;28;20410;-61
2022/04/24 03:19:09;;;;;;;5.27;4.23;;;;;;;12.56;55.62;100639.06;5072425;28;20449;-61
2022/04/24 03:21:36;;;;;;;6.25;4.35;;;;;;;12.54;55.69;100646.41;5072320;28;20433;-61
2022/04/24 03:24:03;;;;;;;6.03;4.72;;;;;;;12.56;55.72;100657.66;5072019;28;20797;-61
2022/04/24 03:26:30;;;;;;;6.07;4.68;;;;;;;12.55;55.73;100656.84;5072279;28;20427;-61
2022/04/24 03:28:58;;;;;;;5.50;5.00;;;;;;;12.54;55.95;100655.19;5072344;28;20518;-61
2022/04/24 03:31:25;;;;;;;5.35;4.60;;;;;;;12.51;56.13;100673.34;5072257;28;20422;-62
2022/04/24 03:33:54;;;;;;;5.53;4.43;;;;;;;12.52;56.21;100669.69;5072121;28;20443;-61
2022/04/24 03:36:21;;;;;;;6.07;4.70;;;;;;;12.53;55.99;100669.50;5071882;28;20924;-61
2022/04/24 03:38:48;;;;;;;5.40;4.90;;;;;;;12.56;55.88;100671.78;5072048;28;20411;-61
2022/04/24 03:41:15;;;;;;;5.82;4.80;;;;;;;12.63;55.62;100674.53;5072097;28;20442;-61
2022/04/24 03:44:56;;;;;;;6.68;5.40;;;;;;;12.66;55.62;100678.66;5118306;27;20409;-61
2022/04/24 03:47:24;;;;;;;4.95;3.90;;;;;;;12.66;55.25;100684.81;5087174;28;20421;-61
2022/04/24 03:49:51;;;;;;;4.43;4.03;;;;;;;12.71;55.35;100687.75;5087255;28;20467;-61
2022/04/24 03:52:19;;;;;;;7.47;5.23;;;;;;;12.79;55.04;100692.13;5087143;28;20449;-61
2022/04/24 03:54:46;;;;;;;4.53;3.40;;;;;;;12.88;54.87;100692.88;5087095;28;20420;-61
2022/04/24 03:57:13;;;;;;;6.40;3.15;;;;;;;13.00;54.45;100699.38;5086722;28;20494;-62
2022/04/24 03:59:41;;;;;;;5.45;3.30;;;;;;;13.06;54.31;100695.13;5086800;28;20479;-61
2022/04/24 04:02:09;;;;;;;6.00;3.20;;;;;;;13.27;53.65;100692.50;5054307;28;20575;-61
2022/04/24 04:04:36;;;;;;;7.05;3.28;;;;;;;13.39;53.10;100706.16;5046451;28;20429;-61
2022/04/24 04:07:03;;;;;;;5.32;3.10;;;;;;;13.46;52.97;100706.25;5046811;28;20831;-62
2022/04/24 04:09:30;;;;;;;15.25;4.38;;;;;;;13.58;52.45;100708.22;5046635;28;20445;-62
2022/04/24 04:11:58;;;;;;;8.60;5.37;;;;;;;13.70;52.27;100705.88;5046219;28;20414;-61
2022/04/24 04:14:25;;;;;;;6.25;4.18;;;;;;;13.85;52.02;100702.31;5046523;28;20413;-62
2022/04/24 04:16:52;;;;;;;5.57;3.92;;;;;;;13.93;51.50;100705.66;5046492;28;20436;-61
2022/04/24 04:19:21;;;;;;;4.63;4.10;;;;;;;14.07;51.62;100705.78;5046191;28;20985;-62
2022/04/24 04:21:48;;;;;;;7.63;3.80;;;;;;;14.29;50.85;100704.69;5046420;28;20464;-62
2022/04/24 04:24:15;;;;;;;6.88;4.78;;;;;;;14.51;50.29;100709.97;5046301;28;20429;-63
2022/04/24 04:26:42;;;;;;;4.70;3.75;;;;;;;14.66;50.46;100717.91;5046083;28;20409;-62
2022/04/24 04:29:09;;;;;;;5.68;4.00;;;;;;;14.82;49.89;100724.75;5046416;28;20468;-61
2022/04/24 04:31:36;;;;;;;5.40;3.20;;;;;;;15.06;49.64;100731.44;5046068;28;20418;-61
2022/04/24 04:34:03;;;;;;;5.60;2.95;;;;;;;15.27;48.80;100731.31;5045947;28;20428;-63
2022/04/24 04:36:32;;;;;;;5.90;3.30;;;;;;;15.50;48.47;100727.44;5045874;28;20453;-62
2022/04/24 04:38:59;;;;;;;13.45;8.70;;;;;;;15.79;47.70;100730.81;5045819;28;20420;-62
2022/04/24 04:41:26;;;;;;;9.85;5.68;;;;;;;16.05;47.54;100714.00;5046076;28;20417;-61
2022/04/24 04:43:53;;;;;;;5.47;4.85;;;;;;;16.26;46.89;100712.97;5045890;28;20435;-62
2022/04/24 04:46:20;;;;;;;5.50;4.60;;;;;;;16.54;46.53;100719.91;5045756;28;20838;-63
2022/04/24 04:48:47;;;;;;;8.75;5.22;;;;;;;16.70;46.51;100715.94;5045897;28;20437;-62
2022/04/24 04:51:14;;;;;;;6.65;5.13;;;;;;;17.04;45.85;100705.97;5045614;28;20420;-62
2022/04/24 04:53:42;;;;;;;8.25;5.80;;;;;;;17.28;45.83;100707.91;5045805;28;20410;-62
2022/04/24 04:56:09;;;;;;;9.10;7.20;;;;;;;17.49;45.45;100709.44;5032926;28;20851;-62
2022/04/24 04:58:36;;;;;;;8.40;6.50;;;;;;;17.86;44.70;100698.06;5032457;28;20954;-62
2022/04/24 05:01:03;;;;;;;7.80;6.97;;;;;;;18.15;44.28;100689.38;5032078;28;20445;-62
2022/04/24 05:03:31;;;;;;;8.23;6.50;;;;;;;18.55;43.70;100693.50;5031962;28;20477;-62
2022/04/24 05:05:58;;;;;;;8.57;7.07;;;;;;;18.89;42.88;100689.44;5032117;28;21579;-62
2022/04/24 05:08:25;;;;;;;9.97;6.70;;;;;;;19.29;42.17;100696.16;5032245;28;20421;-62
2022/04/24 05:10:54;;;;;;;9.70;7.13;;;;;;;19.74;41.52;100689.53;5031874;28;20912;-62
2022/04/24 05:13:21;;;;;;;9.85;8.18;;;;;;;19.94;40.78;100691.88;5032261;28;20413;-62
2022/04/24 05:15:48;;;;;;;10.20;8.30;;;;;;;20.23;40.45;100688.25;5031780;28;20421;-62
2022/04/24 05:18:15;;;;;;;8.35;7.25;;;;;;;20.37;39.85;100690.72;5031820;28;20422;-62
2022/04/24 05:20:43;;;;;;;8.93;6.80;;;;;;;20.55;39.63;100685.19;5031724;28;20959;-63
2022/04/24 05:23:10;;;;;;;9.20;7.20;;;;;;;20.91;39.12;100685.94;5031565;28;20934;-62
2022/04/24 05:25:37;;;;;;;7.78;6.85;;;;;;;21.30;38.56;100679.91;5031854;28;20428;-62
2022/04/24 05:28:06;;;;;;;9.18;6.40;;;;;;;21.31;38.12;100685.06;5031888;28;20410;-62
2022/04/24 05:30:34;;;;;;;8.07;6.72;;;;;;;21.69;37.78;100688.19;5031849;28;20784;-61
2022/04/24 05:33:01;;;;;;;8.13;6.32;;;;;;;21.81;37.57;100683.53;5031482;28;20519;-61
2022/04/24 05:35:29;;;;;;;8.38;6.95;;;;;;;22.13;36.83;100680.25;5031808;28;20422;-62
2022/04/24 05:37:56;;;;;;;9.63;7.60;;;;;;;22.77;35.89;100674.34;5031709;28;20428;-61
2022/04/24 05:40:23;;;;;;;8.10;6.85;;;;;;;23.29;35.14;100679.25;5031638;28;20453;-63
2022/04/24 05:44:12;;;;;;;8.55;6.78;;;;;;;23.56;34.90;100681.13;5118143;27;20402;-60
2022/04/24 05:46:39;;;;;;;8.50;6.45;;;;;;;23.90;34.27;100670.06;5086908;28;20804;-60
2022/04/24 05:49:06;;;;;;;7.00;6.22;;;;;;;23.84;33.76;100668.38;5086839;28;20406;-60
2022/04/24 05:51:33;;;;;;;7.35;6.65;;;;;;;24.05;33.22;100675.56;5086809;28;20480;-61
2022/04/24 05:54:00;;;;;;;6.90;6.20;;;;;;;24.50;32.75;100670.66;5086704;28;20430;-60
2022/04/24 05:56:27;;;;;;;8.02;6.40;;;;;;;24.70;32.68;100672.66;5087033;28;20420;-61
2022/04/24 05:58:54;;;;;;;6.90;5.85;;;;;;;25.07;32.17;100669.00;5086631;28;20410;-64
2022/04/24 06:01:23;;;;;;;6.18;5.57;;;;;;;25.37;31.44;100670.13;5086674;28;20546;-61
2022/04/24 06:03:50;;;;;;;8.02;5.65;;;;;;;25.21;31.20;100666.59;5086806;28;20437;-62
2022/04/24 06:06:17;;;;;;;5.82;5.10;;;;;;;25.52;30.92;100675.59;5086806;28;20442;-61
2022/04/24 06:08:45;;;;;;;5.20;4.70;;;;;;;25.41;30.95;100673.97;5086765;28;20440;-61
2022/04/24 06:11:12;;;;;;;7.32;4.60;;;;;;;25.66;30.67;100675.03;5086840;28;20505;-61
2022/04/24 06:13:40;;;;;;;5.13;4.60;;;;;;;25.60;30.55;100671.50;5086418;28;20919;-61
2022/04/24 06:16:07;;;;;;;6.45;4.68;;;;;;;25.95;30.00;100669.91;5086643;28;20414;-61
2022/04/24 06:18:36;;;;;;;5.88;4.85;;;;;;;26.04;30.39;100670.97;5086292;28;20414;-61
2022/04/24 06:21:03;;;;;;;5.72;5.00;;;;;;;26.28;29.88;100670.38;5086299;28;20441;-62
2022/04/24 06:23:31;;;;;;;6.70;5.13;;;;;;;26.10;30.29;100661.72;5086169;28;20432;-60
2022/04/24 06:25:59;;;;;;;6.03;5.10;;;;;;;26.19;30.09;100667.41;5086200;28;20498;-61
2022/04/24 06:28:26;;;;;;;7.45;4.80;;;;;;;26.61;29.86;100666.19;5086123;28;20496;-61
2022/04/24 06:30:53;;;;;;;5.32;4.78;;;;;;;26.67;29.58;100675.16;5086360;28;20449;-61
2022/04/24 06:33:21;;;;;;;5.30;4.40;;;;;;;26.87;29.25;100674.25;5086075;28;20471;-61
2022/04/24 06:35:49;;;;;;;6.35;5.13;;;;;;;26.77;29.55;100677.81;5086008;28;20446;-61
2022/04/24 06:38:17;;;;;;;6.07;5.45;;;;;;;26.98;29.51;100675.00;5085884;28;20416;-61
2022/04/24 06:40:45;;;;;;;8.67;5.50;;;;;;;27.18;29.46;100671.34;5085835;28;20421;-61
2022/04/24 06:43:12;;;;;;;7.70;5.70;;;;;;;27.23;29.17;100677.53;5085974;28;20434;-62
2022/04/24 06:45:40;;;;;;;6.60;5.93;;;;;;;27.21;29.39;100679.75;5086102;28;20491;-62
2022/04/24 06:48:10;;;;;;;8.37;6.30;;;;;;;26.51;30.38;100680.63;5085703;28;20441;-61
2022/04/24 06:50:38;;;;;;;6.50;5.57;;;;;;;27.30;29.21;100666.38;5085730;28;20497;-61
2022/04/24 06:53:08;;;;;;;7.63;5.27;;;;;;;27.08;29.17;100667.59;5085647;28;20414;-61
2022/04/24 06:55:36;;;;;;;6.28;4.80;;;;;;;26.95;29.23;100670.09;5072333;28;20415;-62
2022/04/24 06:58:04;;;;;;;5.60;5.10;;;;;;;26.55;30.10;100661.03;5072449;28;20496;-61
2022/04/24 07:00:33;;;;;;;6.23;5.40;;;;;;;26.74;30.10;100663.94;5072089;28;20442;-63
2022/04/24 07:03:00;;;;;;;8.80;5.38;;;;;;;27.06;29.90;100668.94;5072224;28;20466;-62
2022/04/24 07:05:28;;;;;;;5.82;4.50;;;;;;;26.68;30.05;100666.69;5071974;28;20499;-61
2022/04/24 07:07:55;;;;;;;5.88;4.65;;;;;;;26.31;30.68;100659.75;5071919;28;20412;-61
2022/04/24 07:10:24;;;;;;;8.75;5.13;;;;;;;26.18;30.87;100656.81;5072164;28;20417;-62
2022/04/24 07:12:53;;;;;;;4.95;4.55;;;;;;;26.20;30.91;100658.16;5072336;28;20435;-61
2022/04/24 07:15:22;;;;;;;5.38;4.38;;;;;;;25.32;32.28;100662.03;5071721;28;20411;-62
2022/04/24 07:17:51;;;;;;;5.85;4.43;;;;;;;25.38;32.29;100653.59;5072078;28;20500;-61
2022/04/24 07:20:19;;;;;;;6.00;4.00;;;;;;;25.40;32.32;100652.53;5071661;28;20414;-61
2022/04/24 07:22:48;;;;;;;4.95;4.30;;;;;;;24.69;33.76;100660.22;5071821;28;20463;-61
2022/04/24 07:25:16;;;;;;;4.97;4.05;;;;;;;24.58;33.84;100659.34;5071507;28;20410;-61
2022/04/24 07:27:45;;;;;;;4.32;3.92;;;;;;;23.66;35.23;100667.69;5071727;28;20407;-61
2022/04/24 07:30:16;;;;;;;5.40;4.00;;;;;;;23.75;35.63;100659.06;5071400;28;20804;-61
2022/04/24 07:32:44;;;;;;;5.88;4.10;;;;;;;23.46;36.10;100664.78;5071699;28;20442;-61
2022/04/24 07:35:13;;;;;;;5.47;4.30;;;;;;;23.41;36.80;100659.38;5071721;28;20498;-61
2022/04/24 07:37:41;;;;;;;4.88;4.03;;;;;;;23.29;36.57;100657.63;5071282;28;20419;-61
2022/04/24 07:40:10;;;;;;;5.97;4.53;;;;;;;23.35;36.40;100655.78;5071567;28;20411;-61
2022/04/24 07:42:49;;;;;;;4.50;4.07;;;;;;;23.00;37.67;100659.72;5071117;28;20418;-61
2022/04/24 07:45:20;;;;;;;5.97;4.13;;;;;;;22.85;38.10;100656.84;5071553;28;20457;-60
2022/04/24 07:47:48;;;;;;;4.90;4.40;;;;;;;22.85;38.32;100657.69;5071682;28;20411;-61
2022/04/24 07:50:16;;;;;;;5.57;4.75;;;;;;;22.81;38.48;100653.03;5071384;28;20418;-61
2022/04/24 07:52:43;;;;;;;6.13;4.50;;;;;;;22.68;38.63;100652.34;5071397;28;20463;-62
2022/04/24 07:55:12;;;;;;;5.47;4.55;;;;;;;22.78;38.12;100657.06;5071358;28;20465;-61
2022/04/24 07:57:40;;;;;;;6.68;4.85;;;;;;;23.09;38.14;100642.00;5071322;28;20962;-61
2022/04/24 08:00:10;;;;;;;5.05;4.50;;;;;;;22.55;38.91;100643.81;5070821;28;20411;-61
2022/04/24 08:04:05;;;;;;;5.07;3.95;;;;;;;22.97;38.67;100646.72;5118355;27;20401;-62
2022/04/24 08:06:32;;;;;;;5.40;4.10;;;;;;;22.79;38.77;100639.75;5086893;28;20994;-62
2022/04/24 08:08:59;;;;;;;4.80;3.80;;;;;;;22.40;38.75;100631.75;5087208;28;20410;-62
2022/04/24 08:11:26;;;;;;;5.95;3.58;;;;;;;22.50;38.79;100626.47;5086781;28;20420;-62
2022/04/24 08:13:53;;;;;;;5.00;4.03;;;;;;;22.68;38.51;100622.63;5086627;28;20947;-61
2022/04/24 08:16:24;;;;;;;6.23;4.33;;;;;;;22.22;39.69;100624.75;5086720;28;20414;-62
2022/04/24 08:18:50;;;;;;;6.35;3.85;;;;;;;22.51;39.22;100625.41;5086997;28;20402;-62
2022/04/24 08:21:19;;;;;;;7.32;3.80;;;;;;;22.47;39.38;100621.59;5086638;28;20412;-62
2022/04/24 08:23:46;;;;;;;5.65;3.83;;;;;;;22.35;40.02;100623.59;5086473;28;20895;-62
2022/04/24 08:26:13;;;;;;;3.97;3.22;;;;;;;22.33;39.24;100620.31;5086828;28;20412;-62
2022/04/24 08:28:40;;;;;;;4.57;3.50;;;;;;;22.41;39.41;100613.66;5086426;28;20799;-62
2022/04/24 08:31:07;;;;;;;5.50;3.40;;;;;;;22.22;39.31;100615.81;5086648;28;20410;-61
2022/04/24 08:33:34;;;;;;;3.58;2.90;;;;;;;22.10;38.44;100618.63;5086438;28;20416;-61
2022/04/24 08:36:01;;;;;;;4.53;3.00;;;;;;;21.52;39.00;100613.47;5086403;28;20949;-63
2022/04/24 08:38:29;;;;;;;5.70;3.00;;;;;;;21.92;38.71;100609.75;5086628;28;20520;-62
2022/04/24 08:41:00;;;;;;;4.25;3.35;;;;;;;21.79;39.13;100614.66;5086224;28;20434;-62
2022/04/24 08:43:27;;;;;;;3.53;2.92;;;;;;;21.78;39.63;100611.16;5086104;28;20422;-62
2022/04/24 08:45:55;;;;;;;5.88;3.60;;;;;;;21.95;39.55;100600.34;5086457;28;20459;-63
2022/04/24 08:48:22;;;;;;;4.95;3.63;;;;;;;22.08;39.49;100602.69;5086092;28;20450;-62
2022/04/24 08:50:50;;;;;;;4.13;3.72;;;;;;;22.36;39.21;100598.19;5086331;28;20491;-61
2022/04/24 08:53:18;;;;;;;4.72;3.90;;;;;;;21.79;40.42;100598.47;5086313;28;20497;-62
2022/04/24 08:55:48;;;;;;;5.77;4.17;;;;;;;22.31;39.95;100590.88;5085905;28;20472;-61
2022/04/24 08:58:15;;;;;;;4.25;3.80;;;;;;;22.08;39.89;100591.88;5085868;28;20420;-62
2022/04/24 09:00:43;;;;;;;6.00;4.32;;;;;;;22.37;39.63;100590.94;5085859;28;20446;-61
2022/04/24 09:03:11;;;;;;;5.60;3.78;;;;;;;22.26;39.88;100590.78;5085925;28;20525;-61
2022/04/24 09:05:38;;;;;;;4.70;3.42;;;;;;;22.33;39.18;100593.31;5085761;28;20457;-62
2022/04/24 09:08:06;;;;;;;4.43;2.83;;;;;;;22.45;39.14;100596.69;5085768;28;20866;-61
2022/04/24 09:10:33;;;;;;;5.32;2.97;;;;;;;22.33;39.36;100583.31;5086001;28;20410;-62
2022/04/24 09:13:03;;;;;;;3.05;2.28;;;;;;;22.21;39.38;100588.00;5085963;28;20414;-62
2022/04/24 09:15:34;;;;;;;23.05;19.58;;;;;;;22.45;39.09;100582.38;5071776;28;20446;-61
2022/04/24 09:18:02;;;;;;;4.03;1.90;;;;;;;22.01;39.39;100576.94;5072322;28;20855;-62
2022/04/24 09:20:34;;;;;;;3.90;1.80;;;;;;;22.01;39.31;100582.34;5072037;28;20410;-61
2022/04/24 09:23:04;;;;;;;3.08;1.70;;;;;;;22.10;39.29;100583.53;5072104;28;20877;-61
2022/04/24 09:25:40;;;;;;;2.60;1.67;;;;;;;22.17;38.65;100586.88;5071998;28;20411;-61
2022/04/24 09:28:09;;;;;;;2.50;1.70;;;;;;;22.37;38.38;100580.94;5072172;28;20411;-62
2022/04/24 09:30:36;;;;;;;4.07;1.60;;;;;;;22.35;38.93;100580.38;5072089;28;20903;-61
2022/04/24 09:33:07;;;;;;;2.85;1.80;;;;;;;22.33;38.90;100577.94;5072254;28;20406;-61
2022/04/24 09:35:36;;;;;;;3.17;1.70;;;;;;;22.49;38.75;100575.38;5072000;28;20411;-62
2022/04/24 09:38:13;;;;;;;3.60;2.05;;;;;;;22.33;39.33;100567.13;5071753;28;20839;-61
2022/04/24 09:40:41;;;;;;;1.88;1.70;;;;;;;22.26;39.59;100562.97;5071967;28;20443;-61
2022/04/24 09:43:14;;;;;;;3.15;1.65;;;;;;;22.29;39.54;100566.00;5071763;28;20552;-61
2022/04/24 09:45:42;;;;;;;3.53;2.00;;;;;;;22.77;38.96;100551.91;5071881;28;20490;-61
2022/04/24 09:48:13;;;;;;;3.20;1.90;;;;;;;22.73;38.14;100554.31;5071870;28;20537;-61
2022/04/24 09:50:41;;;;;;;2.45;1.60;;;;;;;22.69;38.53;100548.59;5071866;28;20482;-61
2022/04/24 09:53:12;;;;;;;2.28;1.33;;;;;;;22.78;38.17;100537.31;5071516;28;20773;-61
2022/04/24 09:55:40;;;;;;;4.05;1.58;;;;;;;22.82;38.06;100547.38;5071353;28;20905;-61
2022/04/24 09:58:09;;;;;;;3.33;1.73;;;;;;;22.98;38.04;100534.81;5071315;28;20414;-60
2022/04/24 10:00:38;;;;;;;3.10;1.80;;;;;;;23.14;37.48;100537.66;5071569;28;20481;-61
2022/04/24 10:03:05;;;;;;;3.65;1.48;;;;;;;23.10;38.54;100540.06;5071317;28;20434;-60
2022/04/24 10:05:32;;;;;;;1.88;1.58;;;;;;;23.12;38.32;100535.25;5071177;28;20411;-60
2022/04/24 10:08:02;;;;;;;2.00;1.60;;;;;;;23.14;38.37;100527.69;5071162;28;20411;-62
2022/04/24 10:10:29;;;;;;;2.75;1.60;;;;;;;23.01;38.60;100528.91;5071470;28;20433;-61
2022/04/24 10:12:56;;;;;;;3.67;1.70;;;;;;;22.97;38.90;100527.78;5071469;28;20469;-61
2022/04/24 10:15:26;;;;;;;2.03;1.42;;;;;;;23.07;37.70;100519.78;5071330;28;20442;-61
2022/04/24 10:18:32;;;;;;;2.58;1.52;;;;;;;23.26;37.89;100519.38;5071279;28;20422;-61
2022/04/24 10:21:22;;;;;;;3.60;1.75;;;;;;;23.12;36.54;100512.78;5059294;28;20938;-62
2022/04/24 10:23:49;;;;;;;2.38;1.38;;;;;;;23.33;36.47;100511.84;5070692;28;20471;-61
2022/04/24 10:26:21;;;;;;;2.80;1.40;;;;;;;23.32;36.82;100514.81;5070285;28;20417;-61
2022/04/24 10:28:48;;;;;;;3.65;1.45;;;;;;;23.19;37.28;100507.97;5070750;28;20417;-60
2022/04/24 10:31:16;;;;;;;4.20;1.38;;;;;;;23.27;36.33;100511.00;5070633;28;20415;-61
2022/04/24 10:33:53;;;;;;;3.13;1.77;;;;;;;23.50;35.88;100500.91;5070904;28;20446;-61
2022/04/24 10:36:23;;;;;;;3.15;1.42;;;;;;;23.77;34.80;100499.94;5070664;28;20476;-61
2022/04/24 10:38:52;;;;;;;3.25;1.60;;;;;;;23.63;35.98;100510.44;5071132;28;20414;-61
2022/04/24 10:41:21;;;;;;;2.70;1.45;;;;;;;23.54;36.05;100506.59;5070499;28;20481;-61
2022/04/24 10:43:49;;;;;;;3.55;1.55;;;;;;;23.50;35.58;100500.06;5070364;28;20438;-61
2022/04/24 10:46:20;;;;;;;3.25;1.60;;;;;;;23.67;35.76;100504.22;5070688;28;20411;-61
2022/04/24 10:48:48;;;;;;;2.70;1.30;;;;;;;23.69;35.21;100497.75;5070283;28;20417;-61
2022/04/24 10:51:30;;;;;;;2.47;1.40;;;;;;;23.65;35.79;100500.16;5118181;27;20398;-62
2022/04/24 10:53:58;;;;;;;2.83;1.40;;;;;;;23.58;35.62;100492.25;5086892;28;20467;-62
2022/04/24 10:56:26;;;;;;;2.85;1.40;;;;;;;23.77;35.36;100489.09;5087178;28;20939;-63
2022/04/24 10:58:53;;;;;;;2.03;1.30;;;;;;;23.78;35.33;100491.56;5087142;28;20420;-62
2022/04/24 11:01:20;;;;;;;3.35;1.70;;;;;;;23.90;35.48;100482.44;5086731;28;20987;-62
2022/04/24 11:03:47;;;;;;;2.75;1.35;;;;;;;23.89;35.33;100486.22;5086710;28;20413;-62
2022/04/24 11:06:18;;;;;;;2.35;1.30;;;;;;;23.79;35.35;100482.38;5086656;28;20450;-62
2022/04/24 11:08:47;;;;;;;1.95;1.13;;;;;;;23.79;34.00;100471.53;5086841;28;20449;-60
2022/04/24 11:11:15;;;;;;;2.70;1.20;;;;;;;23.70;34.41;100470.44;5086705;28;20473;-60
2022/04/24 11:13:42;;;;;;;1.80;1.17;;;;;;;23.75;33.70;100466.91;5086880;28;20497;-60
2022/04/24 11:16:10;;;;;;;2.65;1.23;;;;;;;24.09;33.01;100461.91;5086494;28;20505;-60
2022/04/24 11:18:37;;;;;;;3.38;1.20;;;;;;;23.97;34.01;100464.88;5086461;28;20930;-61
2022/04/24 11:21:05;;;;;;;2.60;1.10;;;;;;;23.99;33.77;100462.72;5086678;28;20888;-61
2022/04/24 11:23:34;;;;;;;2.83;1.13;;;;;;;24.11;34.02;100467.06;5086698;28;20497;-60
2022/04/24 11:26:05;;;;;;;2.55;1.20;;;;;;;24.02;34.29;100461.34;5086237;28;20406;-61
2022/04/24 11:30:28;;;;;;;3.25;1.40;;;;;;;24.19;34.11;100455.72;5118404;27;20555;-63
2022/04/24 11:32:58;;;;;;;3.38;1.25;;;;;;;24.17;33.27;100458.69;5086843;28;20766;-62
2022/04/24 11:35:27;;;;;;;3.30;1.23;;;;;;;24.46;32.88;100452.81;5086836;28;20421;-62
2022/04/24 11:37:54;;;;;;;3.37;1.30;;;;;;;24.37;33.20;100460.63;5086785;28;20873;-63
2022/04/24 11:40:22;;;;;;;3.92;1.45;;;;;;;24.29;33.38;100446.81;5086760;28;20450;-62
2022/04/24 11:42:49;;;;;;;2.58;1.30;;;;;;;24.45;33.81;100453.88;5086651;28;20921;-62
2022/04/24 11:51:42;;;;;;;3.47;1.30;;;;;;;24.51;33.67;100444.69;5107358;28;20464;-62
2022/04/24 11:54:11;;;;;;;2.13;1.20;;;;;;;24.69;33.44;100447.97;5107196;28;20462;-63
2022/04/24 11:56:38;;;;;;;2.03;1.00;;;;;;;24.56;33.44;100435.75;5107082;28;20491;-62
2022/04/24 11:59:15;;;;;;;3.35;1.30;;;;;;;24.54;33.69;100444.19;5107086;28;20426;-62
2022/04/24 12:01:46;;;;;;;2.50;1.17;;;;;;;24.59;33.54;100430.59;5107277;28;20440;-62